createdAt,value
2023-05-01T00:00:28.790Z,27.83
2023-05-01T00:03:14.364Z,31.75
2023-05-01T00:05:41.974Z,40.67
2023-05-01T00:08:09.107Z,48.10
2023-05-01T00:10:36.892Z,58.20
2023-05-01T00:13:04.597Z,45.42
2023-05-01T00:15:33.040Z,38.55
2023-05-01T00:18:00.237Z,43.53
2023-05-01T00:20:31.086Z,43.78
2023-05-01T00:22:58.096Z,23.20
2023-05-01T00:25:25.391Z,24.98
2023-05-01T00:27:52.347Z,23.33
2023-05-01T00:30:19.575Z,20.13
2023-05-01T00:32:46.819Z,25.65
2023-05-01T00:35:14.094Z,26.23
2023-05-01T00:37:41.129Z,21.70
2023-05-01T00:40:09.052Z,27.13
2023-05-01T00:42:37.225Z,24.15
2023-05-01T00:45:08.333Z,22.15
2023-05-01T00:47:36.538Z,20.30
2023-05-01T00:50:05.209Z,21.33
2023-05-01T00:52:32.295Z,18.88
2023-05-01T00:55:00.194Z,18.42
2023-05-01T00:57:27.427Z,17.13
2023-05-01T00:59:55.096Z,19.13
2023-05-01T01:02:22.503Z,15.88
2023-05-01T01:04:50.300Z,24.50
2023-05-01T01:07:26.727Z,28.45
2023-05-01T01:10:18.411Z,16.38
2023-05-01T01:13:12.789Z,19.27
2023-05-01T01:16:15.813Z,17.88
2023-05-01T01:18:56.474Z,16.60
2023-05-01T01:21:36.772Z,18.60
2023-05-01T01:24:32.303Z,18.45
2023-05-01T01:27:13.206Z,14.55
2023-05-01T01:29:49.030Z,20.17
2023-05-01T01:32:34.525Z,24.67
2023-05-01T01:35:16.302Z,13.00
2023-05-01T01:37:56.585Z,19.17
2023-05-01T01:40:29.226Z,13.93
2023-05-01T01:43:02.479Z,12.60
2023-05-01T01:45:36.712Z,11.30
2023-05-01T01:48:07.552Z,9.48
2023-05-01T01:50:37.263Z,20.50
2023-05-01T01:53:07.078Z,19.70
2023-05-01T01:55:35.847Z,21.23
2023-05-01T01:58:05.206Z,21.30
2023-05-01T02:00:34.749Z,18.52
2023-05-01T02:03:03.606Z,18.10
2023-05-01T02:05:33.022Z,20.40
2023-05-01T02:08:02.169Z,22.13
2023-05-01T02:10:29.964Z,23.42
2023-05-01T02:12:59.042Z,305.20
2023-05-01T02:15:27.916Z,311.08
2023-05-01T02:17:55.648Z,39.15
2023-05-01T02:20:23.027Z,23.20
2023-05-01T02:22:53.245Z,13.35
2023-05-01T02:25:20.569Z,23.30
2023-05-01T02:27:55.698Z,18.20
2023-05-01T02:30:22.727Z,43.30
2023-05-01T02:32:50.585Z,20.52
2023-05-01T02:35:17.930Z,25.65
2023-05-01T02:37:45.890Z,17.15
2023-05-01T02:40:15.114Z,23.10
2023-05-01T02:42:45.380Z,62.45
2023-05-01T02:45:20.034Z,63.42
2023-05-01T02:47:54.497Z,64.05
2023-05-01T02:50:22.787Z,50.97
2023-05-01T02:52:51.193Z,43.03
2023-05-01T02:55:37.913Z,52.80
2023-05-01T02:58:05.298Z,55.45
2023-05-01T03:00:32.719Z,48.67
2023-05-01T03:03:00.020Z,46.55
2023-05-01T03:05:27.222Z,28.75
2023-05-01T03:07:54.485Z,27.60
2023-05-01T03:10:21.642Z,16.30
2023-05-01T03:12:48.932Z,12.63
2023-05-01T03:15:16.517Z,14.85
2023-05-01T03:17:43.847Z,16.77
2023-05-01T03:20:11.221Z,15.13
2023-05-01T03:22:39.099Z,16.02
2023-05-01T03:25:07.673Z,16.38
2023-05-01T03:27:35.046Z,14.05
2023-05-01T03:30:02.104Z,17.08
2023-05-01T03:32:32.797Z,11.95
2023-05-01T03:35:00.062Z,11.63
2023-05-01T03:37:28.667Z,17.13
2023-05-01T03:39:55.962Z,15.50
2023-05-01T03:42:42.147Z,12.43
2023-05-01T03:45:17.734Z,12.55
2023-05-01T03:47:45.147Z,14.00
2023-05-01T03:50:14.476Z,13.40
2023-05-01T03:52:43.573Z,90.97
2023-05-01T03:55:10.550Z,115.10
2023-05-01T03:57:47.670Z,97.40
2023-05-01T04:00:15.040Z,33.95
2023-05-01T04:02:47.755Z,105.80
2023-05-01T04:05:21.438Z,173.25
2023-05-01T04:07:53.593Z,109.05
2023-05-01T04:10:20.699Z,64.25
2023-05-01T04:12:55.177Z,47.55
2023-05-01T04:15:22.834Z,39.05
2023-05-01T04:17:51.117Z,15.63
2023-05-01T04:20:19.564Z,20.10
2023-05-01T04:22:47.824Z,20.30
2023-05-01T04:25:14.955Z,14.75
2023-05-01T04:27:43.170Z,24.58
2023-05-01T04:30:11.053Z,9.38
2023-05-01T04:32:39.147Z,32.17
2023-05-01T04:35:06.857Z,18.55
2023-05-01T04:37:37.851Z,37.55
2023-05-01T04:40:10.599Z,12.30
2023-05-01T04:42:39.423Z,9.75
2023-05-01T04:45:09.685Z,7.00
2023-05-01T04:47:37.559Z,9.07
2023-05-01T04:50:06.465Z,10.30
2023-05-01T04:52:34.126Z,6.13
2023-05-01T04:55:04.017Z,5.18
2023-05-01T04:57:35.791Z,6.97
2023-05-01T05:00:07.780Z,5.50
2023-05-01T05:02:41.210Z,8.05
2023-05-01T05:05:09.392Z,5.20
2023-05-01T05:07:37.021Z,4.15
2023-05-01T05:10:27.317Z,6.78
2023-05-01T05:13:11.530Z,6.13
2023-05-01T05:15:39.539Z,6.88
2023-05-01T05:18:11.567Z,6.90
2023-05-01T05:20:40.063Z,9.45
2023-05-01T05:23:08.588Z,6.07
2023-05-01T05:25:36.058Z,6.38
2023-05-01T05:28:03.613Z,4.90
2023-05-01T05:30:31.087Z,7.72
2023-05-01T05:32:58.843Z,7.95
2023-05-01T05:35:26.255Z,8.60
2023-05-01T05:37:54.643Z,7.50
2023-05-01T05:40:22.008Z,7.57
2023-05-01T05:42:56.030Z,7.25
2023-05-01T05:45:24.346Z,7.03
2023-05-01T05:47:52.378Z,7.57
2023-05-01T05:50:19.530Z,9.02
2023-05-01T05:52:48.045Z,9.98
2023-05-01T05:55:15.217Z,10.55
2023-05-01T05:57:52.036Z,6.65
2023-05-01T06:00:19.521Z,8.13
2023-05-01T06:02:50.195Z,8.32
2023-05-01T06:05:20.857Z,8.80
2023-05-01T06:07:48.341Z,8.68
2023-05-01T06:10:15.552Z,12.77
2023-05-01T06:12:48.902Z,8.82
2023-05-01T06:15:19.502Z,10.73
2023-05-01T06:17:53.302Z,5.72
2023-05-01T06:20:20.420Z,11.57
2023-05-01T06:22:50.171Z,6.90
2023-05-01T06:25:23.424Z,5.43
2023-05-01T06:27:51.420Z,6.45
2023-05-01T06:30:23.955Z,6.53
2023-05-01T06:32:51.337Z,5.20
2023-05-01T06:35:21.394Z,8.30
2023-05-01T06:37:48.959Z,4.68
2023-05-01T06:40:16.342Z,6.57
2023-05-01T06:42:44.008Z,6.57
2023-05-01T06:45:11.090Z,5.18
2023-05-01T06:47:38.798Z,9.98
2023-05-01T06:50:09.747Z,7.63
2023-05-01T06:52:37.174Z,6.70
2023-05-01T06:55:06.532Z,7.20
2023-05-01T06:57:34.073Z,7.13
2023-05-01T07:00:01.352Z,7.55
2023-05-01T07:02:28.694Z,5.43
2023-05-01T07:04:55.754Z,8.02
2023-05-01T07:07:23.718Z,5.40
2023-05-01T07:09:50.753Z,7.90
2023-05-01T07:12:18.126Z,4.07
2023-05-01T07:14:45.114Z,5.93
2023-05-01T07:17:12.712Z,9.13
2023-05-01T07:19:39.969Z,9.35
2023-05-01T07:22:07.302Z,6.05
2023-05-01T07:24:34.268Z,7.10
2023-05-01T07:27:01.688Z,8.75
2023-05-01T07:29:28.800Z,8.00
2023-05-01T07:31:59.264Z,10.02
2023-05-01T07:34:26.273Z,7.05
2023-05-01T07:36:53.545Z,5.93
2023-05-01T07:39:20.605Z,6.70
2023-05-01T07:41:47.917Z,7.20
2023-05-01T07:44:14.970Z,48.63
2023-05-01T07:46:42.321Z,88.20
2023-05-01T07:49:09.460Z,6.57
2023-05-01T07:51:36.836Z,9.52
2023-05-01T07:54:06.807Z,7.72
2023-05-01T07:56:34.119Z,22.52
2023-05-01T07:59:01.099Z,8.75
2023-05-01T08:01:28.551Z,7.15
2023-05-01T08:03:55.894Z,8.32
2023-05-01T08:06:23.533Z,6.10
2023-05-01T08:08:50.594Z,7.35
2023-05-01T08:11:17.855Z,7.45
2023-05-01T08:13:44.792Z,7.90
2023-05-01T08:16:12.194Z,18.77
2023-05-01T08:18:39.256Z,19.73
2023-05-01T08:21:06.586Z,9.65
2023-05-01T08:23:33.832Z,10.40
2023-05-01T08:26:01.584Z,5.72
2023-05-01T08:28:28.837Z,6.72
2023-05-01T08:30:56.326Z,10.68
2023-05-01T08:33:23.563Z,9.88
2023-05-01T08:35:51.337Z,11.32
2023-05-01T08:38:18.505Z,4.55
2023-05-01T08:40:53.596Z,6.25
2023-05-01T08:45:51.741Z,12.25
2023-05-01T08:48:20.244Z,6.65
2023-05-01T08:50:48.205Z,11.63
2023-05-01T08:53:20.227Z,10.23
2023-05-01T08:55:48.948Z,6.68
2023-05-01T08:58:18.150Z,7.38
2023-05-01T09:00:46.885Z,6.65
2023-05-01T09:03:14.510Z,5.57
2023-05-01T09:05:42.450Z,4.50
2023-05-01T09:08:09.816Z,5.50
2023-05-01T09:10:46.810Z,15.70
2023-05-01T09:13:13.874Z,8.18
2023-05-01T09:15:42.885Z,9.55
2023-05-01T09:18:10.168Z,6.05
2023-05-01T09:20:37.971Z,9.50
2023-05-01T09:23:05.052Z,6.55
2023-05-01T09:25:32.406Z,5.25
2023-05-01T09:27:59.413Z,8.65
2023-05-01T09:30:31.617Z,6.50
2023-05-01T09:33:16.918Z,8.52
2023-05-01T09:35:52.483Z,6.63
2023-05-01T09:38:24.291Z,11.13
2023-05-01T09:40:56.676Z,8.65
2023-05-01T09:43:31.595Z,6.18
2023-05-01T09:46:09.620Z,6.35
2023-05-01T09:48:37.449Z,5.78
2023-05-01T09:51:28.837Z,4.50
2023-05-01T09:53:58.430Z,12.38
2023-05-01T09:56:27.406Z,14.23
2023-05-01T09:58:56.447Z,5.63
2023-05-01T10:01:48.137Z,6.55
2023-05-01T10:04:15.355Z,4.88
2023-05-01T10:06:43.098Z,7.30
2023-05-01T10:09:17.782Z,7.60
2023-05-01T10:12:00.554Z,5.47
2023-05-01T10:14:30.578Z,5.97
2023-05-01T10:17:17.223Z,7.57
2023-05-01T10:19:47.381Z,7.13
2023-05-01T10:22:15.116Z,5.20
2023-05-01T10:24:43.985Z,4.05
2023-05-01T10:27:13.469Z,9.35
2023-05-01T10:29:44.403Z,9.93
2023-05-01T10:32:12.030Z,6.43
2023-05-01T10:34:45.078Z,7.72
2023-05-01T10:37:19.109Z,4.28
2023-05-01T10:39:49.483Z,4.55
2023-05-01T10:42:20.123Z,7.47
2023-05-01T10:44:48.125Z,7.00
2023-05-01T10:47:28.661Z,5.75
2023-05-01T10:50:07.135Z,8.43
2023-05-01T10:53:24.260Z,5.22
2023-05-01T10:55:54.329Z,7.38
2023-05-01T10:58:39.708Z,8.02
2023-05-01T11:01:36.581Z,5.95
2023-05-01T11:04:22.103Z,7.60
2023-05-01T11:07:03.845Z,3.95
2023-05-01T11:09:55.640Z,6.72
2023-05-01T11:12:51.750Z,8.02
2023-05-01T11:18:02.418Z,7.22
2023-05-01T11:20:35.742Z,5.82
2023-05-01T11:23:03.464Z,5.90
2023-05-01T11:25:31.782Z,4.82
2023-05-01T11:28:01.542Z,5.72
2023-05-01T11:30:39.637Z,4.53
2023-05-01T11:33:10.100Z,5.82
2023-05-01T11:35:39.150Z,7.25
2023-05-01T11:38:06.621Z,5.15
2023-05-01T11:40:36.175Z,11.70
2023-05-01T11:43:07.998Z,9.45
2023-05-01T11:45:37.291Z,6.10
2023-05-01T11:48:16.047Z,7.30
2023-05-01T11:50:45.739Z,12.60
2023-05-01T11:53:18.619Z,12.73
2023-05-01T11:55:45.805Z,6.32
2023-05-01T11:58:15.389Z,3.47
2023-05-01T12:00:43.584Z,8.05
2023-05-01T12:03:13.843Z,9.30
2023-05-01T12:05:43.025Z,12.93
2023-05-01T12:08:23.240Z,10.35
2023-05-01T12:10:57.970Z,8.55
2023-05-01T12:13:26.999Z,5.20
2023-05-01T12:15:55.997Z,6.53
2023-05-01T12:18:26.408Z,6.65
2023-05-01T12:20:55.270Z,6.55
2023-05-01T12:23:34.227Z,5.47
2023-05-01T12:26:03.048Z,5.75
2023-05-01T12:28:31.385Z,4.95
2023-05-01T12:31:04.822Z,5.30
2023-05-01T12:33:32.852Z,7.93
2023-05-01T12:36:11.276Z,4.13
2023-05-01T12:38:39.898Z,5.18
2023-05-01T12:41:09.650Z,4.88
2023-05-01T12:43:38.207Z,5.38
2023-05-01T12:46:06.900Z,4.13
2023-05-01T12:48:40.072Z,5.25
2023-05-01T12:51:07.777Z,8.02
2023-05-01T12:53:43.822Z,6.07
2023-05-01T12:56:23.995Z,6.35
2023-05-01T12:58:53.603Z,6.80
2023-05-01T13:01:28.507Z,4.47
2023-05-01T13:03:58.027Z,2.88
2023-05-01T13:06:35.411Z,6.07
2023-05-01T13:09:12.760Z,4.93
2023-05-01T13:11:39.802Z,3.70
2023-05-01T13:14:11.652Z,4.68
2023-05-01T13:16:46.566Z,5.85
2023-05-01T13:19:14.724Z,4.43
2023-05-01T13:21:49.365Z,10.13
2023-05-01T13:26:46.075Z,3.17
2023-05-01T13:29:16.679Z,6.68
2023-05-01T13:31:44.819Z,10.00
2023-05-01T13:34:19.054Z,7.20
2023-05-01T13:36:46.850Z,6.57
2023-05-01T13:39:21.338Z,12.43
2023-05-01T13:41:49.565Z,11.82
2023-05-01T13:44:18.091Z,5.63
2023-05-01T13:46:46.310Z,5.63
2023-05-01T13:49:14.964Z,13.50
2023-05-01T13:51:44.183Z,11.73
2023-05-01T13:54:12.534Z,6.40
2023-05-01T13:56:41.169Z,9.65
2023-05-01T13:59:09.155Z,18.60
2023-05-01T14:01:42.673Z,14.90
2023-05-01T14:04:11.424Z,7.40
2023-05-01T14:06:43.783Z,7.38
2023-05-01T14:09:11.322Z,7.85
2023-05-01T14:11:46.768Z,6.97
2023-05-01T14:14:16.630Z,9.52
2023-05-01T14:16:48.530Z,7.35
2023-05-01T14:19:18.111Z,8.40
2023-05-01T14:21:47.067Z,5.20
2023-05-01T14:24:17.930Z,13.95
2023-05-01T14:26:47.783Z,22.52
2023-05-01T14:29:27.962Z,7.78
2023-05-01T14:31:55.920Z,13.88
2023-05-01T14:34:23.268Z,17.13
2023-05-01T14:36:50.649Z,9.30
2023-05-01T14:39:19.110Z,7.15
2023-05-01T14:41:47.986Z,6.43
2023-05-01T14:44:17.935Z,6.55
2023-05-01T14:46:52.201Z,7.28
2023-05-01T14:49:21.701Z,9.20
2023-05-01T14:51:49.428Z,4.40
2023-05-01T14:54:16.861Z,5.00
2023-05-01T14:56:44.999Z,28.15
2023-05-01T14:59:13.020Z,26.83
2023-05-01T15:01:41.036Z,9.10
2023-05-01T15:04:11.092Z,8.30
2023-05-01T15:06:39.846Z,16.77
2023-05-01T15:09:07.277Z,8.55
2023-05-01T15:11:34.307Z,12.35
2023-05-01T15:14:04.279Z,13.63
2023-05-01T15:16:32.680Z,9.65
2023-05-01T15:19:00.180Z,10.73
2023-05-01T15:21:27.170Z,15.52
2023-05-01T15:23:54.495Z,7.15
2023-05-01T15:26:24.409Z,7.85
2023-05-01T15:28:51.791Z,9.93
2023-05-01T15:31:19.616Z,8.02
2023-05-01T15:33:46.926Z,10.32
2023-05-01T15:36:13.917Z,10.25
2023-05-01T15:38:42.829Z,7.38
2023-05-01T15:41:09.903Z,5.18
2023-05-01T15:43:37.711Z,6.93
2023-05-01T15:46:06.032Z,10.65
2023-05-01T15:48:33.831Z,6.18
2023-05-01T15:51:00.878Z,8.02
2023-05-01T15:53:28.188Z,8.27
2023-05-01T15:55:57.763Z,7.50
2023-05-01T15:58:25.213Z,5.90
2023-05-01T16:00:52.846Z,8.27
2023-05-01T16:03:20.720Z,12.00
2023-05-01T16:05:47.912Z,15.20
2023-05-01T16:08:16.311Z,12.82
2023-05-01T16:10:46.341Z,10.65
2023-05-01T16:13:14.273Z,10.75
2023-05-01T16:15:41.315Z,13.95
2023-05-01T16:18:09.769Z,15.63
2023-05-01T16:20:42.493Z,18.42
2023-05-01T16:23:11.608Z,14.20
2023-05-01T16:25:43.047Z,8.15
2023-05-01T16:28:12.669Z,47.58
2023-05-01T16:30:42.945Z,11.63
2023-05-01T16:33:18.984Z,14.13
2023-05-01T16:35:49.790Z,37.35
2023-05-01T16:38:18.522Z,9.25
2023-05-01T16:40:46.907Z,58.92
2023-05-01T16:43:14.361Z,20.27
2023-05-01T16:45:41.950Z,28.63
2023-05-01T16:48:10.394Z,35.88
2023-05-01T16:50:41.245Z,22.38
2023-05-01T16:53:09.987Z,14.80
2023-05-01T16:55:37.389Z,17.35
2023-05-01T16:58:04.837Z,58.03
2023-05-01T17:00:31.825Z,20.10
2023-05-01T17:02:59.225Z,14.20
2023-05-01T17:05:26.548Z,15.20
2023-05-01T17:07:54.182Z,14.77
2023-05-01T17:10:21.141Z,13.63
2023-05-01T17:12:48.674Z,18.25
2023-05-01T17:15:15.774Z,28.90
2023-05-01T17:17:43.140Z,30.00
2023-05-01T17:20:11.296Z,81.35
2023-05-01T17:22:38.866Z,31.63
2023-05-01T17:25:10.407Z,27.00
2023-05-01T17:27:37.827Z,29.52
2023-05-01T17:30:05.598Z,36.63
2023-05-01T17:32:37.370Z,32.38
2023-05-01T17:35:05.985Z,28.58
2023-05-01T17:37:35.781Z,40.05
2023-05-01T17:40:04.156Z,34.90
2023-05-01T17:42:31.622Z,61.85
2023-05-01T17:44:58.586Z,43.08
2023-05-01T17:47:26.351Z,42.45
2023-05-01T17:49:56.123Z,32.67
2023-05-01T17:52:23.635Z,39.58
2023-05-01T17:54:50.760Z,36.20
2023-05-01T17:57:18.140Z,26.60
2023-05-01T17:59:45.456Z,29.45
2023-05-01T18:02:13.098Z,28.35
2023-05-01T18:04:44.274Z,32.90
2023-05-01T18:07:12.030Z,26.42
2023-05-01T18:09:39.048Z,27.73
2023-05-01T18:12:06.476Z,27.77
2023-05-01T18:14:33.577Z,28.77
2023-05-01T18:17:01.261Z,36.38
2023-05-01T18:19:28.936Z,39.55
2023-05-01T18:21:56.339Z,21.20
2023-05-01T18:24:23.525Z,23.27
2023-05-01T18:26:50.862Z,19.10
2023-05-01T18:29:17.896Z,25.70
2023-05-01T18:31:45.613Z,23.77
2023-05-01T18:34:12.742Z,23.23
2023-05-01T18:36:40.039Z,20.95
2023-05-01T18:39:07.208Z,31.58
2023-05-01T18:41:34.463Z,31.80
2023-05-01T18:44:02.485Z,27.98
2023-05-01T18:46:30.236Z,27.73
2023-05-01T18:48:57.390Z,33.30
2023-05-01T18:51:27.739Z,19.25
2023-05-01T18:53:55.020Z,17.50
2023-05-01T18:56:24.283Z,16.02
2023-05-01T18:58:51.597Z,23.13
2023-05-01T19:01:19.112Z,13.98
2023-05-01T19:03:46.303Z,12.82
2023-05-01T19:06:14.330Z,16.17
2023-05-01T19:08:41.946Z,21.90
2023-05-01T19:11:09.608Z,28.02
2023-05-01T19:13:36.864Z,28.45
2023-05-01T19:16:10.222Z,16.63
2023-05-01T19:18:38.393Z,15.40
2023-05-01T19:21:06.186Z,16.27
2023-05-01T19:23:35.535Z,25.65
2023-05-01T19:26:06.373Z,25.25
2023-05-01T19:28:33.777Z,20.27
2023-05-01T19:31:01.488Z,17.20
2023-05-01T19:33:28.535Z,17.42
2023-05-01T19:35:58.589Z,31.92
2023-05-01T19:38:26.055Z,25.67
2023-05-01T19:40:53.367Z,21.70
2023-05-01T19:43:23.124Z,20.33
2023-05-01T19:45:50.721Z,29.55
2023-05-01T19:48:17.951Z,15.80
2023-05-01T19:50:51.141Z,15.48
2023-05-01T19:53:18.577Z,13.50
2023-05-01T19:55:48.006Z,16.65
2023-05-01T19:58:15.621Z,22.23
2023-05-01T20:00:45.059Z,11.93
2023-05-01T20:03:19.220Z,20.23
2023-05-01T20:05:46.643Z,21.58
2023-05-01T20:08:13.703Z,20.77
2023-05-01T20:10:41.017Z,23.23
2023-05-01T20:13:13.258Z,14.57
2023-05-01T20:15:40.850Z,21.20
2023-05-01T20:18:08.256Z,30.65
2023-05-01T20:20:38.898Z,13.50
2023-05-01T20:23:15.429Z,16.70
2023-05-01T20:25:46.231Z,19.23
2023-05-01T20:28:26.599Z,14.05
2023-05-01T20:30:54.174Z,22.02
2023-05-01T20:33:23.139Z,14.15
2023-05-01T20:35:51.453Z,17.80
2023-05-01T20:38:19.644Z,12.95
2023-05-01T20:40:46.955Z,13.05
2023-05-01T20:43:15.188Z,11.38
2023-05-01T20:45:43.479Z,11.70
2023-05-01T20:48:13.013Z,12.85
2023-05-01T20:50:56.175Z,13.73
2023-05-01T20:53:26.417Z,12.82
2023-05-01T20:55:59.048Z,16.10
2023-05-01T20:58:30.720Z,13.65
2023-05-01T21:01:01.950Z,11.13
2023-05-01T21:03:35.208Z,12.82
2023-05-01T21:06:02.960Z,12.65
2023-05-01T21:08:31.573Z,10.27
2023-05-01T21:11:04.099Z,10.43
2023-05-01T21:13:32.309Z,10.57
2023-05-01T21:16:15.995Z,14.48
2023-05-01T21:18:43.521Z,10.75
2023-05-01T21:21:15.822Z,16.83
2023-05-01T21:23:48.923Z,17.77
2023-05-01T21:26:16.523Z,13.82
2023-05-01T21:28:43.753Z,13.88
2023-05-01T21:31:13.435Z,15.40
2023-05-01T21:33:43.261Z,10.25
2023-05-01T21:36:19.310Z,10.70
2023-05-01T21:38:48.933Z,9.95
2023-05-01T21:41:18.358Z,11.10
2023-05-01T21:43:49.802Z,9.40
2023-05-01T21:46:21.926Z,12.95
2023-05-01T21:48:52.341Z,13.45
2023-05-01T21:51:28.562Z,10.63
2023-05-01T21:54:01.709Z,9.77
2023-05-01T21:56:35.205Z,10.32
2023-05-01T21:59:08.166Z,9.60
2023-05-01T22:01:38.941Z,8.43
2023-05-01T22:04:07.229Z,12.10
2023-05-01T22:06:37.477Z,10.73
2023-05-01T22:09:04.770Z,10.90
2023-05-01T22:11:32.218Z,8.93
2023-05-01T22:14:03.921Z,12.20
2023-05-01T22:16:33.856Z,9.75
2023-05-01T22:19:06.321Z,10.60
2023-05-01T22:21:36.415Z,12.63
2023-05-01T22:24:03.553Z,8.70
2023-05-01T22:26:31.463Z,14.50
2023-05-01T22:28:58.604Z,10.18
2023-05-01T22:31:25.486Z,10.40
2023-05-01T22:33:55.229Z,15.13
2023-05-01T22:36:22.343Z,8.75
2023-05-01T22:38:49.898Z,9.90
2023-05-01T22:41:16.985Z,8.65
2023-05-01T22:43:44.338Z,9.77
2023-05-01T22:46:11.433Z,10.70
2023-05-01T22:48:39.050Z,8.23
2023-05-01T22:51:06.686Z,6.90
2023-05-01T22:53:34.050Z,8.50
2023-05-01T22:56:01.262Z,7.88
2023-05-01T22:58:28.570Z,11.80
2023-05-01T23:00:55.677Z,7.22
2023-05-01T23:03:23.157Z,11.70
2023-05-01T23:05:50.193Z,13.82
2023-05-01T23:08:17.436Z,10.35
2023-05-01T23:10:44.437Z,13.88
2023-05-01T23:13:22.131Z,16.42
2023-05-01T23:15:50.133Z,7.38
2023-05-01T23:18:39.722Z,13.98
2023-05-01T23:21:06.752Z,7.85
2023-05-01T23:23:35.474Z,8.50
2023-05-01T23:26:02.698Z,14.10
2023-05-01T23:28:30.420Z,9.30
2023-05-01T23:31:03.279Z,15.57
2023-05-01T23:33:39.069Z,10.25
2023-05-01T23:36:12.351Z,10.38
2023-05-01T23:38:40.509Z,8.68
2023-05-01T23:41:08.049Z,8.05
2023-05-01T23:43:36.188Z,9.90
2023-05-01T23:46:04.561Z,15.07
2023-05-01T23:48:33.600Z,9.98
2023-05-01T23:51:01.413Z,13.98
2023-05-01T23:53:29.429Z,14.18
2023-05-01T23:55:57.022Z,10.35
2023-05-01T23:58:24.786Z,7.72
